sensor_id;sensor_type;location;lat;lon;timestamp;P1;durP1;ratioP1;P2;durP2;ratioP2
67721;SDS011;58309;45.292;11.820;2022-08-19T00:01:37;10.23;;;3.72;;
67721;SDS011;58309;45.292;11.820;2022-08-19T00:04:07;11.18;;;3.92;;
67721;SDS011;58309;45.292;11.820;2022-08-19T00:06:33;11.02;;;3.88;;
67721;SDS011;58309;45.292;11.820;2022-08-19T00:09:00;13.93;;;4.03;;
67721;SDS011;58309;45.292;11.820;2022-08-19T00:11:29;16.35;;;4.95;;
67721;SDS011;58309;45.292;11.820;2022-08-19T00:13:54;17.45;;;5.30;;
67721;SDS011;58309;45.292;11.820;2022-08-19T00:16:21;13.68;;;5.03;;
67721;SDS011;58309;45.292;11.820;2022-08-19T00:18:48;12.48;;;5.13;;
67721;SDS011;58309;45.292;11.820;2022-08-19T00:21:13;19.08;;;5.28;;
67721;SDS011;58309;45.292;11.820;2022-08-19T00:23:40;11.65;;;5.20;;
67721;SDS011;58309;45.292;11.820;2022-08-19T00:26:08;21.85;;;6.22;;
67721;SDS011;58309;45.292;11.820;2022-08-19T00:28:35;15.73;;;5.30;;
67721;SDS011;58309;45.292;11.820;2022-08-19T00:31:02;13.30;;;5.10;;
67721;SDS011;58309;45.292;11.820;2022-08-19T00:33:29;19.35;;;5.82;;
67721;SDS011;58309;45.292;11.820;2022-08-19T00:35:57;11.43;;;4.75;;
67721;SDS011;58309;45.292;11.820;2022-08-19T00:38:23;17.85;;;5.68;;
67721;SDS011;58309;45.292;11.820;2022-08-19T00:40:49;12.68;;;5.28;;
67721;SDS011;58309;45.292;11.820;2022-08-19T00:43:18;16.88;;;5.45;;
67721;SDS011;58309;45.292;11.820;2022-08-19T00:45:45;17.02;;;5.20;;
67721;SDS011;58309;45.292;11.820;2022-08-19T00:48:12;14.70;;;4.85;;
67721;SDS011;58309;45.292;11.820;2022-08-19T00:50:38;13.05;;;5.25;;
67721;SDS011;58309;45.292;11.820;2022-08-19T00:53:08;11.73;;;5.22;;
67721;SDS011;58309;45.292;11.820;2022-08-19T00:55:35;14.25;;;5.20;;
67721;SDS011;58309;45.292;11.820;2022-08-19T00:58:05;13.57;;;5.80;;
67721;SDS011;58309;45.292;11.820;2022-08-19T01:00:33;15.25;;;5.10;;
67721;SDS011;58309;45.292;11.820;2022-08-19T01:03:02;15.50;;;5.30;;
67721;SDS011;58309;45.292;11.820;2022-08-19T01:05:30;15.73;;;5.97;;
67721;SDS011;58309;45.292;11.820;2022-08-19T01:07:57;14.20;;;5.82;;
67721;SDS011;58309;45.292;11.820;2022-08-19T01:10:25;13.75;;;5.70;;
67721;SDS011;58309;45.292;11.820;2022-08-19T01:15:21;13.02;;;5.20;;
67721;SDS011;58309;45.292;11.820;2022-08-19T01:17:50;12.10;;;5.38;;
67721;SDS011;58309;45.292;11.820;2022-08-19T01:20:19;11.70;;;4.95;;
67721;SDS011;58309;45.292;11.820;2022-08-19T01:22:56;15.00;;;5.90;;
67721;SDS011;58309;45.292;11.820;2022-08-19T01:25:28;15.48;;;5.95;;
67721;SDS011;58309;45.292;11.820;2022-08-19T01:27:56;14.15;;;7.13;;
67721;SDS011;58309;45.292;11.820;2022-08-19T01:30:27;14.27;;;7.18;;
67721;SDS011;58309;45.292;11.820;2022-08-19T01:32:55;19.70;;;7.25;;
67721;SDS011;58309;45.292;11.820;2022-08-19T01:35:22;17.77;;;6.78;;
67721;SDS011;58309;45.292;11.820;2022-08-19T01:37:57;16.65;;;7.50;;
67721;SDS011;58309;45.292;11.820;2022-08-19T01:40:26;12.65;;;8.05;;
67721;SDS011;58309;45.292;11.820;2022-08-19T01:42:54;18.45;;;8.70;;
67721;SDS011;58309;45.292;11.820;2022-08-19T01:45:20;16.80;;;8.15;;
67721;SDS011;58309;45.292;11.820;2022-08-19T01:47:48;17.00;;;8.45;;
67721;SDS011;58309;45.292;11.820;2022-08-19T01:50:14;19.40;;;9.65;;
67721;SDS011;58309;45.292;11.820;2022-08-19T01:52:41;21.40;;;10.32;;
67721;SDS011;58309;45.292;11.820;2022-08-19T01:55:08;19.25;;;10.57;;
67721;SDS011;58309;45.292;11.820;2022-08-19T01:57:37;18.75;;;8.77;;
67721;SDS011;58309;45.292;11.820;2022-08-19T02:00:05;15.23;;;8.63;;
67721;SDS011;58309;45.292;11.820;2022-08-19T02:02:34;14.75;;;7.97;;
67721;SDS011;58309;45.292;11.820;2022-08-19T02:04:59;17.75;;;7.20;;
67721;SDS011;58309;45.292;11.820;2022-08-19T02:07:24;15.23;;;8.48;;
67721;SDS011;58309;45.292;11.820;2022-08-19T02:09:50;22.65;;;9.40;;
67721;SDS011;58309;45.292;11.820;2022-08-19T02:12:15;14.82;;;7.95;;
67721;SDS011;58309;45.292;11.820;2022-08-19T02:14:41;14.68;;;7.95;;
67721;SDS011;58309;45.292;11.820;2022-08-19T02:17:07;20.05;;;7.15;;
67721;SDS011;58309;45.292;11.820;2022-08-19T02:19:33;15.13;;;5.55;;
67721;SDS011;58309;45.292;11.820;2022-08-19T02:21:59;14.85;;;5.05;;
67721;SDS011;58309;45.292;11.820;2022-08-19T02:24:25;16.20;;;5.57;;
67721;SDS011;58309;45.292;11.820;2022-08-19T02:26:51;15.85;;;5.30;;
67721;SDS011;58309;45.292;11.820;2022-08-19T02:29:17;17.02;;;5.20;;
67721;SDS011;58309;45.292;11.820;2022-08-19T02:31:43;15.30;;;5.38;;
67721;SDS011;58309;45.292;11.820;2022-08-19T02:34:08;18.85;;;5.50;;
67721;SDS011;58309;45.292;11.820;2022-08-19T02:36:34;18.27;;;5.32;;
67721;SDS011;58309;45.292;11.820;2022-08-19T02:38:59;11.15;;;4.25;;
67721;SDS011;58309;45.292;11.820;2022-08-19T02:41:26;10.02;;;4.53;;
67721;SDS011;58309;45.292;11.820;2022-08-19T02:43:54;17.67;;;5.72;;
67721;SDS011;58309;45.292;11.820;2022-08-19T02:46:26;10.00;;;4.63;;
67721;SDS011;58309;45.292;11.820;2022-08-19T02:48:54;15.43;;;5.53;;
67721;SDS011;58309;45.292;11.820;2022-08-19T02:51:26;14.10;;;4.55;;
67721;SDS011;58309;45.292;11.820;2022-08-19T02:53:54;9.73;;;4.70;;
67721;SDS011;58309;45.292;11.820;2022-08-19T02:56:20;15.57;;;5.43;;
67721;SDS011;58309;45.292;11.820;2022-08-19T02:58:46;13.60;;;5.55;;
67721;SDS011;58309;45.292;11.820;2022-08-19T03:01:19;13.95;;;5.85;;
67721;SDS011;58309;45.292;11.820;2022-08-19T03:03:53;11.48;;;4.97;;
67721;SDS011;58309;45.292;11.820;2022-08-19T03:06:19;13.77;;;5.18;;
67721;SDS011;58309;45.292;11.820;2022-08-19T03:08:46;14.00;;;5.13;;
67721;SDS011;58309;45.292;11.820;2022-08-19T03:11:19;12.70;;;5.53;;
67721;SDS011;58309;45.292;11.820;2022-08-19T03:13:56;11.30;;;5.50;;
67721;SDS011;58309;45.292;11.820;2022-08-19T03:16:23;19.63;;;5.35;;
67721;SDS011;58309;45.292;11.820;2022-08-19T03:18:51;13.85;;;5.15;;
67721;SDS011;58309;45.292;11.820;2022-08-19T03:21:20;12.07;;;5.68;;
67721;SDS011;58309;45.292;11.820;2022-08-19T03:23:49;13.98;;;5.43;;
67721;SDS011;58309;45.292;11.820;2022-08-19T03:26:14;9.43;;;5.63;;
67721;SDS011;58309;45.292;11.820;2022-08-19T03:28:41;12.13;;;5.70;;
67721;SDS011;58309;45.292;11.820;2022-08-19T03:31:09;16.02;;;6.65;;
67721;SDS011;58309;45.292;11.820;2022-08-19T03:33:37;16.55;;;6.85;;
67721;SDS011;58309;45.292;11.820;2022-08-19T03:36:11;23.85;;;8.18;;
67721;SDS011;58309;45.292;11.820;2022-08-19T03:38:40;25.27;;;8.50;;
67721;SDS011;58309;45.292;11.820;2022-08-19T03:41:13;18.90;;;8.50;;
67721;SDS011;58309;45.292;11.820;2022-08-19T03:43:46;23.13;;;9.10;;
67721;SDS011;58309;45.292;11.820;2022-08-19T03:46:14;27.48;;;9.40;;
67721;SDS011;58309;45.292;11.820;2022-08-19T03:48:43;20.02;;;8.80;;
67721;SDS011;58309;45.292;11.820;2022-08-19T03:51:22;19.23;;;8.40;;
67721;SDS011;58309;45.292;11.820;2022-08-19T03:54:00;23.00;;;8.00;;
67721;SDS011;58309;45.292;11.820;2022-08-19T03:56:28;17.77;;;7.78;;
67721;SDS011;58309;45.292;11.820;2022-08-19T03:58:54;22.80;;;7.82;;
67721;SDS011;58309;45.292;11.820;2022-08-19T04:01:21;20.52;;;7.65;;
67721;SDS011;58309;45.292;11.820;2022-08-19T04:03:49;18.55;;;7.38;;
67721;SDS011;58309;45.292;11.820;2022-08-19T04:08:41;21.58;;;7.38;;
67721;SDS011;58309;45.292;11.820;2022-08-19T04:11:08;14.45;;;7.20;;
67721;SDS011;58309;45.292;11.820;2022-08-19T04:13:36;17.60;;;7.10;;
67721;SDS011;58309;45.292;11.820;2022-08-19T04:16:02;21.10;;;7.38;;
67721;SDS011;58309;45.292;11.820;2022-08-19T04:18:28;18.52;;;7.82;;
67721;SDS011;58309;45.292;11.820;2022-08-19T04:20:54;20.95;;;7.10;;
67721;SDS011;58309;45.292;11.820;2022-08-19T04:23:20;16.80;;;7.78;;
67721;SDS011;58309;45.292;11.820;2022-08-19T04:25:46;21.73;;;8.07;;
67721;SDS011;58309;45.292;11.820;2022-08-19T04:28:12;18.15;;;7.40;;
67721;SDS011;58309;45.292;11.820;2022-08-19T04:30:39;17.90;;;6.95;;
67721;SDS011;58309;45.292;11.820;2022-08-19T04:33:07;19.48;;;7.03;;
67721;SDS011;58309;45.292;11.820;2022-08-19T04:35:37;19.83;;;7.00;;
67721;SDS011;58309;45.292;11.820;2022-08-19T04:38:04;16.50;;;6.03;;
67721;SDS011;58309;45.292;11.820;2022-08-19T04:40:30;13.80;;;6.47;;
67721;SDS011;58309;45.292;11.820;2022-08-19T04:43:13;14.57;;;6.25;;
67721;SDS011;58309;45.292;11.820;2022-08-19T04:45:40;14.43;;;5.65;;
67721;SDS011;58309;45.292;11.820;2022-08-19T04:48:06;12.68;;;5.03;;
67721;SDS011;58309;45.292;11.820;2022-08-19T04:50:32;12.48;;;4.90;;
67721;SDS011;58309;45.292;11.820;2022-08-19T04:52:57;15.35;;;4.80;;
67721;SDS011;58309;45.292;11.820;2022-08-19T04:55:23;15.00;;;4.32;;
67721;SDS011;58309;45.292;11.820;2022-08-19T04:57:50;12.15;;;4.10;;
67721;SDS011;58309;45.292;11.820;2022-08-19T05:00:16;12.52;;;3.88;;
67721;SDS011;58309;45.292;11.820;2022-08-19T05:02:41;10.10;;;4.13;;
67721;SDS011;58309;45.292;11.820;2022-08-19T05:05:07;9.52;;;3.75;;
67721;SDS011;58309;45.292;11.820;2022-08-19T05:07:33;11.75;;;3.60;;
67721;SDS011;58309;45.292;11.820;2022-08-19T05:09:59;11.27;;;3.90;;
67721;SDS011;58309;45.292;11.820;2022-08-19T05:12:24;10.07;;;3.60;;
67721;SDS011;58309;45.292;11.820;2022-08-19T05:14:50;10.32;;;3.33;;
67721;SDS011;58309;45.292;11.820;2022-08-19T05:17:16;9.80;;;3.38;;
67721;SDS011;58309;45.292;11.820;2022-08-19T05:19:42;7.60;;;3.47;;
67721;SDS011;58309;45.292;11.820;2022-08-19T05:22:26;5.97;;;3.20;;
67721;SDS011;58309;45.292;11.820;2022-08-19T05:25:04;7.00;;;3.15;;
67721;SDS011;58309;45.292;11.820;2022-08-19T05:27:32;9.63;;;3.50;;
67721;SDS011;58309;45.292;11.820;2022-08-19T05:29:58;9.30;;;3.33;;
67721;SDS011;58309;45.292;11.820;2022-08-19T05:32:24;7.00;;;2.92;;
67721;SDS011;58309;45.292;11.820;2022-08-19T05:34:49;10.80;;;3.17;;
67721;SDS011;58309;45.292;11.820;2022-08-19T05:37:15;7.50;;;3.70;;
67721;SDS011;58309;45.292;11.820;2022-08-19T05:42:16;8.75;;;3.42;;
67721;SDS011;58309;45.292;11.820;2022-08-19T05:44:43;7.55;;;3.05;;
67721;SDS011;58309;45.292;11.820;2022-08-19T05:47:09;4.38;;;2.55;;
67721;SDS011;58309;45.292;11.820;2022-08-19T05:49:36;5.40;;;2.60;;
67721;SDS011;58309;45.292;11.820;2022-08-19T05:52:03;6.68;;;2.67;;
67721;SDS011;58309;45.292;11.820;2022-08-19T05:54:30;7.22;;;2.75;;
67721;SDS011;58309;45.292;11.820;2022-08-19T05:56:56;6.20;;;2.58;;
67721;SDS011;58309;45.292;11.820;2022-08-19T05:59:22;5.18;;;2.47;;
67721;SDS011;58309;45.292;11.820;2022-08-19T06:01:48;4.68;;;2.40;;
67721;SDS011;58309;45.292;11.820;2022-08-19T06:04:20;6.55;;;2.20;;
67721;SDS011;58309;45.292;11.820;2022-08-19T06:06:47;4.45;;;2.25;;
67721;SDS011;58309;45.292;11.820;2022-08-19T06:09:17;5.72;;;2.40;;
67721;SDS011;58309;45.292;11.820;2022-08-19T06:11:44;6.03;;;2.50;;
67721;SDS011;58309;45.292;11.820;2022-08-19T06:14:14;7.82;;;2.50;;
67721;SDS011;58309;45.292;11.820;2022-08-19T06:16:43;6.45;;;2.72;;
67721;SDS011;58309;45.292;11.820;2022-08-19T06:19:10;8.82;;;2.50;;
67721;SDS011;58309;45.292;11.820;2022-08-19T06:21:38;6.00;;;2.35;;
67721;SDS011;58309;45.292;11.820;2022-08-19T06:24:06;3.38;;;2.20;;
67721;SDS011;58309;45.292;11.820;2022-08-19T06:26:34;4.03;;;2.05;;
67721;SDS011;58309;45.292;11.820;2022-08-19T06:29:02;3.03;;;1.80;;
67721;SDS011;58309;45.292;11.820;2022-08-19T06:31:31;3.97;;;2.08;;
67721;SDS011;58309;45.292;11.820;2022-08-19T06:33:58;4.43;;;2.22;;
67721;SDS011;58309;45.292;11.820;2022-08-19T06:36:25;4.43;;;2.45;;
67721;SDS011;58309;45.292;11.820;2022-08-19T06:38:54;5.20;;;2.20;;
67721;SDS011;58309;45.292;11.820;2022-08-19T06:41:22;8.32;;;2.88;;
67721;SDS011;58309;45.292;11.820;2022-08-19T06:43:47;5.57;;;2.38;;
67721;SDS011;58309;45.292;11.820;2022-08-19T06:46:14;7.93;;;2.40;;
67721;SDS011;58309;45.292;11.820;2022-08-19T06:48:42;7.30;;;2.17;;
67721;SDS011;58309;45.292;11.820;2022-08-19T06:51:08;8.20;;;2.33;;
67721;SDS011;58309;45.292;11.820;2022-08-19T06:53:35;4.45;;;2.17;;
67721;SDS011;58309;45.292;11.820;2022-08-19T06:56:00;8.18;;;2.38;;
67721;SDS011;58309;45.292;11.820;2022-08-19T06:58:30;4.95;;;2.50;;
67721;SDS011;58309;45.292;11.820;2022-08-19T07:03:28;6.43;;;2.75;;
67721;SDS011;58309;45.292;11.820;2022-08-19T07:05:56;6.15;;;2.35;;
67721;SDS011;58309;45.292;11.820;2022-08-19T07:08:21;3.70;;;2.28;;
67721;SDS011;58309;45.292;11.820;2022-08-19T07:10:47;8.00;;;2.47;;
67721;SDS011;58309;45.292;11.820;2022-08-19T07:13:14;5.35;;;2.63;;
67721;SDS011;58309;45.292;11.820;2022-08-19T07:15:39;6.82;;;2.40;;
67721;SDS011;58309;45.292;11.820;2022-08-19T07:18:05;6.38;;;2.50;;
67721;SDS011;58309;45.292;11.820;2022-08-19T07:20:30;6.65;;;2.40;;
67721;SDS011;58309;45.292;11.820;2022-08-19T07:22:57;8.30;;;2.30;;
67721;SDS011;58309;45.292;11.820;2022-08-19T07:25:23;11.45;;;2.88;;
67721;SDS011;58309;45.292;11.820;2022-08-19T07:27:49;8.05;;;2.33;;
67721;SDS011;58309;45.292;11.820;2022-08-19T07:30:15;6.78;;;2.30;;
67721;SDS011;58309;45.292;11.820;2022-08-19T07:32:41;7.32;;;2.10;;
67721;SDS011;58309;45.292;11.820;2022-08-19T07:35:07;4.05;;;2.28;;
67721;SDS011;58309;45.292;11.820;2022-08-19T07:37:34;7.97;;;1.83;;
67721;SDS011;58309;45.292;11.820;2022-08-19T07:40:03;3.90;;;2.05;;
67721;SDS011;58309;45.292;11.820;2022-08-19T07:42:30;6.90;;;2.03;;
67721;SDS011;58309;45.292;11.820;2022-08-19T07:44:56;4.78;;;2.00;;
67721;SDS011;58309;45.292;11.820;2022-08-19T07:47:23;4.07;;;1.90;;
67721;SDS011;58309;45.292;11.820;2022-08-19T07:49:48;8.98;;;2.65;;
67721;SDS011;58309;45.292;11.820;2022-08-19T07:52:14;6.18;;;2.10;;
67721;SDS011;58309;45.292;11.820;2022-08-19T07:54:40;5.88;;;2.28;;
67721;SDS011;58309;45.292;11.820;2022-08-19T07:57:06;5.30;;;2.50;;
67721;SDS011;58309;45.292;11.820;2022-08-19T07:59:32;3.25;;;2.10;;
67721;SDS011;58309;45.292;11.820;2022-08-19T08:01:58;6.68;;;2.08;;
67721;SDS011;58309;45.292;11.820;2022-08-19T08:04:27;4.78;;;2.50;;
67721;SDS011;58309;45.292;11.820;2022-08-19T08:07:13;5.43;;;2.22;;
67721;SDS011;58309;45.292;11.820;2022-08-19T08:09:58;5.18;;;2.10;;
67721;SDS011;58309;45.292;11.820;2022-08-19T08:12:26;6.25;;;2.10;;
67721;SDS011;58309;45.292;11.820;2022-08-19T08:14:56;8.60;;;2.22;;
67721;SDS011;58309;45.292;11.820;2022-08-19T08:17:25;5.40;;;2.53;;
67721;SDS011;58309;45.292;11.820;2022-08-19T08:19:52;8.80;;;3.08;;
67721;SDS011;58309;45.292;11.820;2022-08-19T08:22:19;17.20;;;3.15;;
67721;SDS011;58309;45.292;11.820;2022-08-19T08:25:08;6.43;;;2.38;;
67721;SDS011;58309;45.292;11.820;2022-08-19T08:27:41;6.97;;;2.00;;
67721;SDS011;58309;45.292;11.820;2022-08-19T08:30:09;4.85;;;1.83;;
67721;SDS011;58309;45.292;11.820;2022-08-19T08:32:37;5.40;;;1.90;;
67721;SDS011;58309;45.292;11.820;2022-08-19T08:35:05;5.28;;;1.73;;
67721;SDS011;58309;45.292;11.820;2022-08-19T08:37:34;4.20;;;1.75;;
67721;SDS011;58309;45.292;11.820;2022-08-19T08:40:07;4.38;;;1.88;;
67721;SDS011;58309;45.292;11.820;2022-08-19T08:42:44;3.67;;;1.80;;
67721;SDS011;58309;45.292;11.820;2022-08-19T08:45:42;3.40;;;2.00;;
67721;SDS011;58309;45.292;11.820;2022-08-19T08:48:27;7.95;;;2.38;;
67721;SDS011;58309;45.292;11.820;2022-08-19T08:51:00;3.40;;;2.22;;
67721;SDS011;58309;45.292;11.820;2022-08-19T08:53:28;4.32;;;2.10;;
67721;SDS011;58309;45.292;11.820;2022-08-19T08:55:57;2.45;;;1.50;;
67721;SDS011;58309;45.292;11.820;2022-08-19T08:58:42;3.55;;;1.60;;
67721;SDS011;58309;45.292;11.820;2022-08-19T09:01:21;1.60;;;1.40;;
67721;SDS011;58309;45.292;11.820;2022-08-19T09:03:47;8.90;;;1.83;;
67721;SDS011;58309;45.292;11.820;2022-08-19T09:11:40;6.35;;;1.40;;
67721;SDS011;58309;45.292;11.820;2022-08-19T09:17:23;2.53;;;1.02;;
67721;SDS011;58309;45.292;11.820;2022-08-19T09:22:42;2.20;;;1.27;;
67721;SDS011;58309;45.292;11.820;2022-08-19T09:25:13;2.60;;;1.20;;
67721;SDS011;58309;45.292;11.820;2022-08-19T09:27:40;2.35;;;1.30;;
67721;SDS011;58309;45.292;11.820;2022-08-19T09:30:07;1.40;;;1.30;;
67721;SDS011;58309;45.292;11.820;2022-08-19T09:32:35;1.10;;;1.00;;
67721;SDS011;58309;45.292;11.820;2022-08-19T09:35:00;2.70;;;1.10;;
67721;SDS011;58309;45.292;11.820;2022-08-19T09:37:26;2.33;;;1.40;;
67721;SDS011;58309;45.292;11.820;2022-08-19T09:39:52;1.20;;;1.10;;
67721;SDS011;58309;45.292;11.820;2022-08-19T09:42:18;1.13;;;0.90;;
67721;SDS011;58309;45.292;11.820;2022-08-19T09:44:46;1.45;;;1.25;;
67721;SDS011;58309;45.292;11.820;2022-08-19T09:47:12;1.73;;;0.80;;
67721;SDS011;58309;45.292;11.820;2022-08-19T09:49:39;1.10;;;1.00;;
67721;SDS011;58309;45.292;11.820;2022-08-19T09:52:05;1.33;;;1.08;;
67721;SDS011;58309;45.292;11.820;2022-08-19T09:54:33;1.33;;;1.08;;
67721;SDS011;58309;45.292;11.820;2022-08-19T09:56:59;3.00;;;1.52;;
67721;SDS011;58309;45.292;11.820;2022-08-19T09:59:28;3.08;;;1.15;;
67721;SDS011;58309;45.292;11.820;2022-08-19T10:01:54;1.30;;;1.20;;
67721;SDS011;58309;45.292;11.820;2022-08-19T10:04:19;2.97;;;1.42;;
67721;SDS011;58309;45.292;11.820;2022-08-19T10:06:46;2.83;;;1.30;;
67721;SDS011;58309;45.292;11.820;2022-08-19T10:09:13;1.67;;;1.00;;
67721;SDS011;58309;45.292;11.820;2022-08-19T10:11:41;0.80;;;0.80;;
67721;SDS011;58309;45.292;11.820;2022-08-19T10:14:08;0.63;;;0.60;;
67721;SDS011;58309;45.292;11.820;2022-08-19T10:16:36;1.02;;;0.95;;
67721;SDS011;58309;45.292;11.820;2022-08-19T10:19:02;2.13;;;1.10;;
67721;SDS011;58309;45.292;11.820;2022-08-19T10:21:29;2.78;;;1.10;;
67721;SDS011;58309;45.292;11.820;2022-08-19T10:23:57;3.38;;;1.20;;
67721;SDS011;58309;45.292;11.820;2022-08-19T10:26:28;2.00;;;1.40;;
67721;SDS011;58309;45.292;11.820;2022-08-19T10:28:56;4.10;;;1.48;;
67721;SDS011;58309;45.292;11.820;2022-08-19T10:31:23;1.95;;;1.02;;
67721;SDS011;58309;45.292;11.820;2022-08-19T10:33:50;2.15;;;1.35;;
67721;SDS011;58309;45.292;11.820;2022-08-19T10:36:22;1.40;;;1.30;;
67721;SDS011;58309;45.292;11.820;2022-08-19T10:38:50;2.58;;;1.50;;
67721;SDS011;58309;45.292;11.820;2022-08-19T10:41:21;3.55;;;1.40;;
67721;SDS011;58309;45.292;11.820;2022-08-19T10:43:50;1.63;;;1.40;;
67721;SDS011;58309;45.292;11.820;2022-08-19T10:46:17;3.05;;;1.55;;
67721;SDS011;58309;45.292;11.820;2022-08-19T10:48:43;7.13;;;1.63;;
67721;SDS011;58309;45.292;11.820;2022-08-19T10:51:10;6.45;;;2.03;;
67721;SDS011;58309;45.292;11.820;2022-08-19T10:53:55;3.80;;;1.60;;
67721;SDS011;58309;45.292;11.820;2022-08-19T10:56:23;3.65;;;1.33;;
67721;SDS011;58309;45.292;11.820;2022-08-19T10:59:08;2.75;;;1.42;;
67721;SDS011;58309;45.292;11.820;2022-08-19T11:01:34;3.95;;;1.73;;
67721;SDS011;58309;45.292;11.820;2022-08-19T11:04:01;2.45;;;1.30;;
67721;SDS011;58309;45.292;11.820;2022-08-19T11:06:28;2.92;;;1.40;;
67721;SDS011;58309;45.292;11.820;2022-08-19T11:08:55;2.10;;;1.40;;
67721;SDS011;58309;45.292;11.820;2022-08-19T11:11:21;3.20;;;1.30;;
67721;SDS011;58309;45.292;11.820;2022-08-19T11:13:47;1.23;;;1.10;;
67721;SDS011;58309;45.292;11.820;2022-08-19T11:16:24;1.23;;;1.08;;
67721;SDS011;58309;45.292;11.820;2022-08-19T11:18:53;1.88;;;1.13;;
67721;SDS011;58309;45.292;11.820;2022-08-19T11:23:56;2.45;;;1.00;;
67721;SDS011;58309;45.292;11.820;2022-08-19T11:28:49;3.72;;;1.10;;
67721;SDS011;58309;45.292;11.820;2022-08-19T11:31:20;1.70;;;1.20;;
67721;SDS011;58309;45.292;11.820;2022-08-19T11:33:46;5.00;;;1.13;;
67721;SDS011;58309;45.292;11.820;2022-08-19T11:36:15;2.83;;;1.10;;
67721;SDS011;58309;45.292;11.820;2022-08-19T11:38:41;1.48;;;1.10;;
67721;SDS011;58309;45.292;11.820;2022-08-19T11:41:07;3.30;;;1.20;;
67721;SDS011;58309;45.292;11.820;2022-08-19T11:43:33;1.25;;;1.13;;
67721;SDS011;58309;45.292;11.820;2022-08-19T11:45:59;1.98;;;1.20;;
67721;SDS011;58309;45.292;11.820;2022-08-19T11:48:29;1.30;;;1.20;;
67721;SDS011;58309;45.292;11.820;2022-08-19T11:50:57;2.00;;;1.10;;
67721;SDS011;58309;45.292;11.820;2022-08-19T11:53:23;1.38;;;1.08;;
67721;SDS011;58309;45.292;11.820;2022-08-19T11:55:49;1.20;;;1.08;;
67721;SDS011;58309;45.292;11.820;2022-08-19T11:58:21;3.05;;;0.90;;
67721;SDS011;58309;45.292;11.820;2022-08-19T12:00:47;1.20;;;1.10;;
67721;SDS011;58309;45.292;11.820;2022-08-19T12:03:13;2.72;;;0.90;;
67721;SDS011;58309;45.292;11.820;2022-08-19T12:05:39;2.05;;;0.90;;
67721;SDS011;58309;45.292;11.820;2022-08-19T12:08:06;1.45;;;0.85;;
67721;SDS011;58309;45.292;11.820;2022-08-19T12:10:32;0.80;;;0.80;;
67721;SDS011;58309;45.292;11.820;2022-08-19T12:12:58;1.02;;;0.80;;
67721;SDS011;58309;45.292;11.820;2022-08-19T12:15:24;2.03;;;0.90;;
67721;SDS011;58309;45.292;11.820;2022-08-19T12:17:52;2.25;;;0.90;;
67721;SDS011;58309;45.292;11.820;2022-08-19T12:20:20;1.20;;;0.90;;
67721;SDS011;58309;45.292;11.820;2022-08-19T12:22:45;1.70;;;0.85;;
67721;SDS011;58309;45.292;11.820;2022-08-19T12:25:11;0.73;;;0.60;;
67721;SDS011;58309;45.292;11.820;2022-08-19T12:27:38;2.53;;;1.00;;
67721;SDS011;58309;45.292;11.820;2022-08-19T12:30:05;1.17;;;1.08;;
67721;SDS011;58309;45.292;11.820;2022-08-19T12:32:31;5.25;;;1.52;;
67721;SDS011;58309;45.292;11.820;2022-08-19T12:34:57;3.08;;;1.92;;
67721;SDS011;58309;45.292;11.820;2022-08-19T12:37:23;5.90;;;2.63;;
67721;SDS011;58309;45.292;11.820;2022-08-19T12:39:48;6.43;;;2.28;;
67721;SDS011;58309;45.292;11.820;2022-08-19T12:42:16;5.05;;;2.50;;
67721;SDS011;58309;45.292;11.820;2022-08-19T12:44:44;3.05;;;2.60;;
67721;SDS011;58309;45.292;11.820;2022-08-19T12:47:11;4.45;;;2.63;;
67721;SDS011;58309;45.292;11.820;2022-08-19T12:49:39;5.80;;;2.55;;
67721;SDS011;58309;45.292;11.820;2022-08-19T12:52:06;3.47;;;2.17;;
67721;SDS011;58309;45.292;11.820;2022-08-19T12:54:34;5.55;;;2.25;;
67721;SDS011;58309;45.292;11.820;2022-08-19T12:57:00;5.88;;;2.28;;
67721;SDS011;58309;45.292;11.820;2022-08-19T12:59:29;3.60;;;2.20;;
67721;SDS011;58309;45.292;11.820;2022-08-19T13:01:55;3.45;;;2.10;;
67721;SDS011;58309;45.292;11.820;2022-08-19T13:04:20;2.55;;;2.15;;
67721;SDS011;58309;45.292;11.820;2022-08-19T13:06:46;2.97;;;2.20;;
67721;SDS011;58309;45.292;11.820;2022-08-19T13:09:11;4.85;;;2.22;;
67721;SDS011;58309;45.292;11.820;2022-08-19T13:11:37;5.40;;;2.25;;
67721;SDS011;58309;45.292;11.820;2022-08-19T13:14:03;5.22;;;2.63;;
67721;SDS011;58309;45.292;11.820;2022-08-19T13:16:29;4.07;;;2.30;;
67721;SDS011;58309;45.292;11.820;2022-08-19T13:18:56;7.47;;;2.25;;
67721;SDS011;58309;45.292;11.820;2022-08-19T13:21:24;3.67;;;1.85;;
67721;SDS011;58309;45.292;11.820;2022-08-19T13:23:53;5.68;;;2.50;;
67721;SDS011;58309;45.292;11.820;2022-08-19T13:26:19;3.92;;;1.95;;
67721;SDS011;58309;45.292;11.820;2022-08-19T13:28:46;3.05;;;1.85;;
67721;SDS011;58309;45.292;11.820;2022-08-19T13:31:33;6.32;;;2.13;;
67721;SDS011;58309;45.292;11.820;2022-08-19T13:34:24;3.97;;;2.00;;
67721;SDS011;58309;45.292;11.820;2022-08-19T13:36:52;3.97;;;1.75;;
67721;SDS011;58309;45.292;11.820;2022-08-19T13:39:18;5.03;;;2.05;;
67721;SDS011;58309;45.292;11.820;2022-08-19T13:41:45;1.70;;;1.60;;
67721;SDS011;58309;45.292;11.820;2022-08-19T13:44:15;2.67;;;1.73;;
67721;SDS011;58309;45.292;11.820;2022-08-19T13:46:45;3.47;;;1.70;;
67721;SDS011;58309;45.292;11.820;2022-08-19T13:49:13;3.72;;;1.88;;
67721;SDS011;58309;45.292;11.820;2022-08-19T13:51:40;3.13;;;1.70;;
67721;SDS011;58309;45.292;11.820;2022-08-19T13:54:07;2.47;;;1.50;;
67721;SDS011;58309;45.292;11.820;2022-08-19T13:56:33;3.33;;;2.10;;
67721;SDS011;58309;45.292;11.820;2022-08-19T13:59:00;2.08;;;1.58;;
67721;SDS011;58309;45.292;11.820;2022-08-19T14:01:25;2.72;;;1.80;;
67721;SDS011;58309;45.292;11.820;2022-08-19T14:03:51;6.60;;;1.80;;
67721;SDS011;58309;45.292;11.820;2022-08-19T14:06:18;3.00;;;1.80;;
67721;SDS011;58309;45.292;11.820;2022-08-19T14:08:44;2.83;;;1.90;;
67721;SDS011;58309;45.292;11.820;2022-08-19T14:11:10;2.47;;;1.70;;
67721;SDS011;58309;45.292;11.820;2022-08-19T14:13:35;4.18;;;1.60;;
67721;SDS011;58309;45.292;11.820;2022-08-19T14:16:05;3.95;;;1.70;;
67721;SDS011;58309;45.292;11.820;2022-08-19T14:18:35;3.08;;;1.80;;
67721;SDS011;58309;45.292;11.820;2022-08-19T14:21:01;4.63;;;1.88;;
67721;SDS011;58309;45.292;11.820;2022-08-19T14:23:28;3.90;;;1.95;;
67721;SDS011;58309;45.292;11.820;2022-08-19T14:26:02;9.55;;;2.00;;
67721;SDS011;58309;45.292;11.820;2022-08-19T14:28:28;3.13;;;1.70;;
67721;SDS011;58309;45.292;11.820;2022-08-19T14:30:55;4.70;;;1.77;;
67721;SDS011;58309;45.292;11.820;2022-08-19T14:33:20;6.22;;;1.88;;
67721;SDS011;58309;45.292;11.820;2022-08-19T14:35:46;2.85;;;1.83;;
67721;SDS011;58309;45.292;11.820;2022-08-19T14:38:15;2.70;;;1.60;;
67721;SDS011;58309;45.292;11.820;2022-08-19T14:40:42;3.50;;;1.60;;
67721;SDS011;58309;45.292;11.820;2022-08-19T14:43:08;4.32;;;1.80;;
67721;SDS011;58309;45.292;11.820;2022-08-19T14:45:34;4.63;;;1.80;;
67721;SDS011;58309;45.292;11.820;2022-08-19T14:48:02;2.97;;;1.70;;
67721;SDS011;58309;45.292;11.820;2022-08-19T14:50:29;2.17;;;1.58;;
67721;SDS011;58309;45.292;11.820;2022-08-19T14:52:59;3.67;;;1.70;;
67721;SDS011;58309;45.292;11.820;2022-08-19T14:55:29;3.45;;;1.60;;
67721;SDS011;58309;45.292;11.820;2022-08-19T14:57:55;6.82;;;1.73;;
67721;SDS011;58309;45.292;11.820;2022-08-19T15:00:21;3.58;;;1.90;;
67721;SDS011;58309;45.292;11.820;2022-08-19T15:02:48;3.03;;;1.90;;